Time;durP1;ratioP1;P1;durP2;ratioP2;P2;SDS_P1;SDS_P2;PMS_P1;PMS_P2;Temp;Humidity;BMP_temperature;BMP_pressure;BME280_temperature;BME280_humidity;BME280_pressure;Samples;Min_cycle;Max_cycle;Signal;HPM_P1;HPM_P2
2023/05/19 00:01:01;;;;;;;2.7;1.9;;;;;;;10.95;82.94824;940.5994;;;;
2023/05/19 00:03:26;;;;;;;2.4;1.8;;;;;;;10.94;82.91211;940.6185;;;;
2023/05/19 00:05:52;;;;;;;2.4;2;;;;;;;11.02;82.36816;940.5974;;;;
2023/05/19 00:14:17;;;;;;;3.4;2.2;;;;;;;10.85;83.74023;940.6325;;;;
2023/05/19 00:16:44;;;;;;;2.4;2.1;;;;;;;10.89;83.4502;940.6155;;;;
2023/05/19 00:19:10;;;;;;;2.2;2;;;;;;;10.9;83.39648;940.6244;;;;
2023/05/19 00:21:36;;;;;;;2.8;1.9;;;;;;;10.85;83.85254;940.642;;;;
2023/05/19 00:24:01;;;;;;;2.7;2;;;;;;;10.91;83.78711;940.599;;;;
2023/05/19 00:26:27;;;;;;;2.1;1.9;;;;;;;10.92;83.43262;940.5975;;;;
2023/05/19 00:28:52;;;;;;;2.6;1.8;;;;;;;10.87;83.65234;940.5467;;;;
2023/05/19 00:31:18;;;;;;;3.5;2.2;;;;;;;10.89;83.70215;940.5796;;;;
2023/05/19 00:33:44;;;;;;;2.3;2.1;;;;;;;10.83;84.34277;940.5488;;;;
2023/05/19 00:36:15;;;;;;;2.4;2.1;;;;;;;10.91;83.73926;940.4819;;;;
2023/05/19 00:38:40;;;;;;;2.1;1.9;;;;;;;10.83;83.64551;940.5519;;;;
2023/05/19 00:41:08;;;;;;;2.8;2;;;;;;;10.89;83.53223;940.5383;;;;
2023/05/19 00:43:34;;;;;;;2.3;2.1;;;;;;;10.81;84.37305;940.4697;;;;
2023/05/19 00:45:59;;;;;;;2.2;1.9;;;;;;;;;;;;;
2023/05/19 00:48:24;;;;;;;2.6;1.8;;;;;;;;;;;;;
2023/05/19 00:50:49;;;;;;;2.8;2.1;;;;;;;;;;;;;
2023/05/19 00:53:15;;;;;;;2.3;1.8;;;;;;;;;;;;;
2023/05/19 00:55:41;;;;;;;2.2;2;;;;;;;;;;;;;
2023/05/19 00:58:05;;;;;;;2.1;1.9;;;;;;;;;;;;;
2023/05/19 01:00:31;;;;;;;2.7;1.9;;;;;;;;;;;;;
2023/05/19 01:02:56;;;;;;;2.6;2;;;;;;;;;;;;;
2023/05/19 01:05:21;;;;;;;2.1;1.8;;;;;;;;;;;;;
2023/05/19 01:07:52;;;;;;;2.2;1.9;;;;;;;;;;;;;
2023/05/19 01:10:12;;;;;;;2.5;2;;;;;;;;;;;;;
2023/05/19 01:12:37;;;;;;;3;2.1;;;;;;;;;;;;;
2023/05/19 01:15:02;;;;;;;2.4;1.9;;;;;;;;;;;;;
2023/05/19 01:17:28;;;;;;;3.6;2;;;;;;;;;;;;;
2023/05/19 01:19:55;;;;;;;2.2;1.9;;;;;;;;;;;;;
2023/05/19 01:22:21;;;;;;;2;1.7;;;;;;;;;;;;;
2023/05/19 01:24:45;;;;;;;2.4;1.8;;;;;;;;;;;;;
2023/05/19 01:27:09;;;;;;;2.5;2;;;;;;;;;;;;;
2023/05/19 01:29:34;;;;;;;2.1;1.9;;;;;;;;;;;;;
2023/05/19 01:31:59;;;;;;;2.3;1.9;;;;;;;;;;;;;
2023/05/19 01:34:24;;;;;;;2.8;2.3;;;;;;;;;;;;;
2023/05/19 01:36:49;;;;;;;2.2;2;;;;;;;;;;;;;
2023/05/19 01:39:16;;;;;;;2.1;1.9;;;;;;;;;;;;;
2023/05/19 01:41:41;;;;;;;2.9;1.8;;;;;;;;;;;;;
2023/05/19 01:44:08;;;;;;;1.9;1.7;;;;;;;;;;;;;
2023/05/19 01:46:33;;;;;;;1.7;1.6;;;;;;;;;;;;;
2023/05/19 01:48:58;;;;;;;3.2;2.1;;;;;;;;;;;;;
2023/05/19 01:51:23;;;;;;;2.7;2.1;;;;;;;;;;;;;
2023/05/19 01:53:48;;;;;;;2.3;1.8;;;;;;;;;;;;;
2023/05/19 01:56:13;;;;;;;2.3;2.1;;;;;;;;;;;;;
2023/05/19 01:58:40;;;;;;;2.5;2;;;;;;;;;;;;;
2023/05/19 02:01:05;;;;;;;3.8;1.7;;;;;;;;;;;;;
2023/05/19 02:03:31;;;;;;;3.2;2.2;;;;;;;;;;;;;
2023/05/19 02:05:56;;;;;;;3.2;2.2;;;;;;;;;;;;;
2023/05/19 02:08:21;;;;;;;2.7;1.9;;;;;;;;;;;;;
2023/05/19 02:10:47;;;;;;;2.2;1.8;;;;;;;;;;;;;
2023/05/19 02:13:11;;;;;;;3.2;2;;;;;;;;;;;;;
2023/05/19 02:15:37;;;;;;;2.1;1.9;;;;;;;;;;;;;
2023/05/19 02:18:02;;;;;;;2.8;2;;;;;;;;;;;;;
2023/05/19 02:20:26;;;;;;;2.8;2;;;;;;;;;;;;;
2023/05/19 02:22:54;;;;;;;2.6;2;;;;;;;;;;;;;
2023/05/19 02:25:20;;;;;;;2.3;2.1;;;;;;;;;;;;;
2023/05/19 02:27:47;;;;;;;2.8;1.9;;;;;;;;;;;;;
2023/05/19 02:30:11;;;;;;;2.3;1.9;;;;;;;;;;;;;
2023/05/19 02:32:36;;;;;;;3.1;2.3;;;;;;;;;;;;;
2023/05/19 02:35:01;;;;;;;1.9;1.7;;;;;;;;;;;;;
2023/05/19 02:37:29;;;;;;;2.7;2;;;;;;;;;;;;;
2023/05/19 02:39:54;;;;;;;2.4;2;;;;;;;;;;;;;
2023/05/19 02:42:19;;;;;;;3.8;2.1;;;;;;;;;;;;;
2023/05/19 02:44:44;;;;;;;2.1;1.8;;;;;;;;;;;;;
2023/05/19 02:47:10;;;;;;;2.8;2;;;;;;;;;;;;;
2023/05/19 02:49:35;;;;;;;2.8;2.3;;;;;;;;;;;;;
2023/05/19 02:52:00;;;;;;;2.8;2.2;;;;;;;;;;;;;
2023/05/19 02:54:25;;;;;;;2.1;1.9;;;;;;;;;;;;;
2023/05/19 02:56:51;;;;;;;3.2;2.4;;;;;;;;;;;;;
2023/05/19 02:59:16;;;;;;;3.4;2.2;;;;;;;;;;;;;
2023/05/19 03:01:41;;;;;;;4.7;2.4;;;;;;;;;;;;;
2023/05/19 03:04:07;;;;;;;2.5;2.2;;;;;;;;;;;;;
2023/05/19 03:06:33;;;;;;;2.2;2;;;;;;;;;;;;;
2023/05/19 03:08:58;;;;;;;3;2.4;;;;;;;;;;;;;
2023/05/19 03:11:24;;;;;;;2.6;2.2;;;;;;;;;;;;;
2023/05/19 03:13:49;;;;;;;2.3;2.1;;;;;;;;;;;;;
2023/05/19 03:16:14;;;;;;;3.1;2.5;;;;;;;;;;;;;
2023/05/19 03:18:40;;;;;;;3;2.2;;;;;;;;;;;;;
2023/05/19 03:21:05;;;;;;;2.6;2.3;;;;;;;;;;;;;
2023/05/19 03:23:31;;;;;;;2.7;2.3;;;;;;;;;;;;;
2023/05/19 03:25:56;;;;;;;4.6;3.1;;;;;;;;;;;;;
2023/05/19 03:28:22;;;;;;;3.3;2.2;;;;;;;;;;;;;
2023/05/19 03:30:48;;;;;;;2.5;2.1;;;;;;;;;;;;;
2023/05/19 03:33:14;;;;;;;2.6;2.2;;;;;;;;;;;;;
2023/05/19 03:35:39;;;;;;;3.1;2.4;;;;;;;;;;;;;
2023/05/19 03:38:05;;;;;;;3.1;2.3;;;;;;;;;;;;;
2023/05/19 03:40:30;;;;;;;4;2.5;;;;;;;;;;;;;
2023/05/19 03:42:59;;;;;;;3.1;2.7;;;;;;;;;;;;;
2023/05/19 03:45:24;;;;;;;3.6;2.6;;;;;;;;;;;;;
2023/05/19 03:47:49;;;;;;;4.6;2.6;;;;;;;;;;;;;
2023/05/19 03:50:14;;;;;;;3.1;2.5;;;;;;;;;;;;;
2023/05/19 03:52:45;;;;;;;3.3;2.6;;;;;;;;;;;;;
2023/05/19 03:55:06;;;;;;;2.7;2.3;;;;;;;;;;;;;
2023/05/19 03:57:32;;;;;;;3.3;2.5;;;;;;;;;;;;;
2023/05/19 03:59:57;;;;;;;3.1;2.5;;;;;;;;;;;;;
2023/05/19 04:02:37;;;;;;;3.5;2.4;;;;;;;10.51;86.09473;939.7805;;;;
2023/05/19 04:05:06;;;;;;;3.1;2.8;;;;;;;10.56;85.61426;939.8058;;;;
2023/05/19 04:07:32;;;;;;;2.8;2.4;;;;;;;10.55;85.81836;939.7994;;;;
2023/05/19 04:09:57;;;;;;;3.4;2.1;;;;;;;10.51;86.66699;939.8315;;;;
2023/05/19 04:12:28;;;;;;;3.1;2.6;;;;;;;10.47;86.91895;939.7888;;;;
2023/05/19 04:14:58;;;;;;;3.7;2.3;;;;;;;10.44;86.9707;939.7566;;;;
2023/05/19 04:17:25;;;;;;;4.2;2.8;;;;;;;10.4;87.53418;939.7622;;;;
2023/05/19 04:19:49;;;;;;;4.5;3;;;;;;;10.4;88.04785;939.7805;;;;
2023/05/19 04:22:15;;;;;;;4;2.9;;;;;;;10.48;87.55078;939.7317;;;;
2023/05/19 04:24:40;;;;;;;3.5;2.6;;;;;;;10.47;87.51465;939.788;;;;
2023/05/19 04:27:10;;;;;;;3.2;2.6;;;;;;;10.38;87.73535;939.8328;;;;
2023/05/19 04:29:34;;;;;;;4.3;2.7;;;;;;;10.29;88.10547;939.8875;;;;
2023/05/19 04:32:05;;;;;;;4.6;3.1;;;;;;;10.31;87.96094;939.8741;;;;
2023/05/19 04:34:27;;;;;;;4.1;3.2;;;;;;;10.41;87.57031;939.894;;;;
2023/05/19 04:36:58;;;;;;;3.5;2.8;;;;;;;10.41;87.2959;939.9124;;;;
2023/05/19 04:39:22;;;;;;;4.7;3.5;;;;;;;10.52;86.80371;939.9478;;;;
2023/05/19 04:41:50;;;;;;;3.4;2.9;;;;;;;10.54;86.39844;939.9521;;;;
2023/05/19 04:44:16;;;;;;;5;3.3;;;;;;;10.48;86.87695;939.949;;;;
2023/05/19 04:46:44;;;;;;;4.2;3.2;;;;;;;10.41;86.95313;939.896;;;;
2023/05/19 04:49:11;;;;;;;4.2;3.1;;;;;;;10.49;86.83301;939.9308;;;;
2023/05/19 04:51:40;;;;;;;3.8;2.9;;;;;;;10.58;86.51074;939.9431;;;;
2023/05/19 04:54:05;;;;;;;4.3;2.8;;;;;;;10.53;86.28223;939.9655;;;;
2023/05/19 04:56:32;;;;;;;4;3;;;;;;;10.4;86.96484;939.9469;;;;
2023/05/19 04:58:57;;;;;;;5.1;3.5;;;;;;;10.45;86.7207;939.9286;;;;
2023/05/19 05:01:29;;;;;;;4.8;3.6;;;;;;;10.54;86.74121;939.9641;;;;
2023/05/19 05:03:54;;;;;;;4.7;3.7;;;;;;;10.51;87.28223;939.9136;;;;
2023/05/19 05:06:20;;;;;;;6.5;3.7;;;;;;;10.57;86.94043;939.9158;;;;
2023/05/19 05:08:45;;;;;;;4.9;3.8;;;;;;;10.43;87.09375;939.887;;;;
2023/05/19 05:11:14;;;;;;;4.9;3.9;;;;;;;10.54;87.05859;939.9218;;;;
2023/05/19 05:13:39;;;;;;;5.5;3.6;;;;;;;10.67;86.14746;939.887;;;;
2023/05/19 05:16:08;;;;;;;4.5;3.7;;;;;;;10.42;87.83398;939.8925;;;;
2023/05/19 05:21:31;;;;;;;4.7;3.9;;;;;;;10.59;86.55762;939.8445;;;;
2023/05/19 05:23:55;;;;;;;6.3;3.8;;;;;;;10.72;86.34277;939.9243;;;;
2023/05/19 05:26:22;;;;;;;7.7;4.6;;;;;;;10.9;85.5332;939.8803;;;;
2023/05/19 05:28:47;;;;;;;5.9;3.8;;;;;;;11.03;84.60938;939.8285;;;;
2023/05/19 05:31:13;;;;;;;6.1;3.7;;;;;;;11.17;84.12207;939.8602;;;;
2023/05/19 05:33:38;;;;;;;5;3.4;;;;;;;11.31;84.43555;939.8434;;;;
2023/05/19 05:36:07;;;;;;;4.8;3.8;;;;;;;11.62;83.32813;939.8075;;;;
2023/05/19 05:38:38;;;;;;;5.6;3.6;;;;;;;11.84;82.03027;939.7219;;;;
2023/05/19 05:41:04;;;;;;;5;3.2;;;;;;;12;80.62891;939.7621;;;;
2023/05/19 05:43:30;;;;;;;4.6;3.5;;;;;;;11.99;80.36328;939.7787;;;;
2023/05/19 05:45:57;;;;;;;4.6;3.3;;;;;;;11.65;81.70996;939.8525;;;;
2023/05/19 05:48:22;;;;;;;4.9;3.5;;;;;;;11.93;82.03711;939.8455;;;;
2023/05/19 05:50:48;;;;;;;5.5;3.7;;;;;;;11.9;81.52832;939.8222;;;;
2023/05/19 05:53:13;;;;;;;4.2;3.5;;;;;;;11.89;81.26172;939.8348;;;;
2023/05/19 05:55:39;;;;;;;4.2;3.4;;;;;;;12.06;79.4375;939.7564;;;;
2023/05/19 05:58:09;;;;;;;5.2;3.8;;;;;;;12.1;80.13281;939.7758;;;;
2023/05/19 06:00:30;;;;;;;5.3;3.7;;;;;;;12.18;79.19531;939.7762;;;;
2023/05/19 06:03:01;;;;;;;5.5;3.2;;;;;;;12.12;80.11328;939.7648;;;;
2023/05/19 06:05:26;;;;;;;5.1;3.7;;;;;;;12.22;78.61914;939.8144;;;;
2023/05/19 06:07:51;;;;;;;5.4;3.6;;;;;;;12.51;78.52246;939.7561;;;;
2023/05/19 06:10:20;;;;;;;5.2;3.8;;;;;;;12.3;78.56348;939.7867;;;;
2023/05/19 06:12:46;;;;;;;5.7;3.5;;;;;;;12.48;78.58594;939.712;;;;
2023/05/19 06:15:11;;;;;;;4.9;3.5;;;;;;;12.48;78.33398;939.7161;;;;
2023/05/19 06:17:39;;;;;;;6.1;3.5;;;;;;;12.91;77.05371;939.7117;;;;
2023/05/19 06:20:05;;;;;;;5.7;3.8;;;;;;;12.82;77.3623;939.6844;;;;
2023/05/19 06:22:31;;;;;;;6;3.7;;;;;;;12.63;78.24512;939.6619;;;;
2023/05/19 06:24:56;;;;;;;4.3;3.8;;;;;;;12.73;77.02344;939.6717;;;;
2023/05/19 06:27:24;;;;;;;4.9;3.5;;;;;;;12.84;77.13477;939.7012;;;;
2023/05/19 06:29:49;;;;;;;6;4.1;;;;;;;12.8;77.26563;939.7087;;;;
2023/05/19 06:32:16;;;;;;;6.1;3.9;;;;;;;12.88;77.15234;939.6661;;;;
2023/05/19 06:34:41;;;;;;;4.4;3.6;;;;;;;12.65;77.58301;939.6195;;;;
2023/05/19 06:37:08;;;;;;;5.4;3.5;;;;;;;12.51;78.44141;939.6986;;;;
2023/05/19 06:39:33;;;;;;;5.8;3.9;;;;;;;12.66;78.49121;939.6947;;;;
2023/05/19 06:42:04;;;;;;;6;3.9;;;;;;;12.65;78.84473;939.7402;;;;
2023/05/19 06:45:32;;;;;;;5.2;3.9;;;;;;;12.94;77.65918;939.8077;;;;
2023/05/19 06:48:02;;;;;;;6.2;4;;;;;;;13.31;76.06836;939.7982;;;;
2023/05/19 06:56:01;;;;;;;7.5;4.1;;;;;;;13.24;77.22754;939.7837;;;;
2023/05/19 06:58:27;;;;;;;5.1;3.9;;;;;;;13.31;76.63184;939.731;;;;
2023/05/19 07:00:55;;;;;;;6;4.3;;;;;;;14.29;74.66309;939.7798;;;;
2023/05/19 07:03:20;;;;;;;4.3;3.4;;;;;;;14.9;69.60156;939.7957;;;;
2023/05/19 07:05:46;;;;;;;4.7;3.4;;;;;;;15;68.53125;939.7239;;;;
2023/05/19 07:08:11;;;;;;;6.6;4.2;;;;;;;14.49;69.9043;939.7447;;;;
2023/05/19 07:10:40;;;;;;;5;3.5;;;;;;;13.95;72.38281;939.7206;;;;
2023/05/19 07:13:05;;;;;;;4.5;3.3;;;;;;;13.54;74.5459;939.7234;;;;
2023/05/19 07:15:30;;;;;;;3;2.7;;;;;;;14.2;72.5752;939.7173;;;;
2023/05/19 07:17:56;;;;;;;4.7;3.1;;;;;;;14.12;73.62012;939.683;;;;
2023/05/19 07:20:21;;;;;;;3.9;3;;;;;;;14.58;70.37891;939.7147;;;;
2023/05/19 07:22:46;;;;;;;3.7;3;;;;;;;14.88;71.12109;939.7324;;;;
2023/05/19 07:25:18;;;;;;;5.3;3.1;;;;;;;14.54;68.75977;939.7301;;;;
2023/05/19 07:27:47;;;;;;;3.9;3.1;;;;;;;13.52;73.41504;939.7019;;;;
2023/05/19 07:30:12;;;;;;;3.7;3;;;;;;;13.34;75.24609;939.6742;;;;
2023/05/19 07:32:39;;;;;;;5.8;3.4;;;;;;;13.16;75.70898;939.6671;;;;
2023/05/19 07:35:04;;;;;;;5.4;3.4;;;;;;;13.63;75.06934;939.6326;;;;
2023/05/19 07:37:34;;;;;;;3.7;3.2;;;;;;;14.02;73.64941;939.6128;;;;
2023/05/19 07:40:03;;;;;;;4.5;2.9;;;;;;;15.43;70.07715;939.6017;;;;
2023/05/19 07:42:29;;;;;;;4.2;2.7;;;;;;;15.32;69.39063;939.5628;;;;
2023/05/19 07:44:56;;;;;;;5.2;3;;;;;;;16.06;66.13184;939.5053;;;;
2023/05/19 07:47:21;;;;;;;3.1;2.7;;;;;;;16.19;64.88965;939.4341;;;;
2023/05/19 07:49:50;;;;;;;4.4;2.8;;;;;;;16.37;64.01367;939.4366;;;;
2023/05/19 07:52:17;;;;;;;3.1;2.5;;;;;;;17.24;61.67188;939.4514;;;;
2023/05/19 07:54:40;;;;;;;3.5;2.7;;;;;;;17.19;61.99023;939.4164;;;;
2023/05/19 07:57:08;;;;;;;3.1;2.8;;;;;;;16.84;63.31934;939.4377;;;;
2023/05/19 07:59:33;;;;;;;3.1;2.6;;;;;;;15.75;68.06055;939.4409;;;;
2023/05/19 08:02:02;;;;;;;3.7;2.8;;;;;;;16.25;65.32813;939.3734;;;;
2023/05/19 08:04:27;;;;;;;4;2.8;;;;;;;16.14;64.97559;939.3671;;;;
2023/05/19 08:06:53;;;;;;;3.2;2.9;;;;;;;17.37;61.45703;939.3039;;;;
2023/05/19 08:09:18;;;;;;;5.9;2.8;;;;;;;17.23;62.36621;939.3558;;;;
2023/05/19 08:11:45;;;;;;;3.1;2.8;;;;;;;16.21;65.86426;939.36;;;;
2023/05/19 08:14:11;;;;;;;4.1;2.7;;;;;;;15.67;68.29102;939.4231;;;;
2023/05/19 08:16:37;;;;;;;4.2;2.7;;;;;;;15.82;66.24512;939.4213;;;;
2023/05/19 08:19:04;;;;;;;4.1;2.9;;;;;;;16;65.3125;939.3979;;;;
2023/05/19 08:21:33;;;;;;;3.9;2.8;;;;;;;16.26;64.00977;939.334;;;;
2023/05/19 08:23:55;;;;;;;3.5;2.6;;;;;;;15.96;65.24902;939.3903;;;;
2023/05/19 08:26:22;;;;;;;3.2;2.5;;;;;;;16.56;62.72168;939.2957;;;;
2023/05/19 08:28:46;;;;;;;4.3;2.6;;;;;;;16.8;62.44434;939.3873;;;;
2023/05/19 08:31:17;;;;;;;2.5;2.3;;;;;;;17.05;62.42188;939.3766;;;;
2023/05/19 08:33:39;;;;;;;3.4;2.3;;;;;;;17.38;59.80078;939.3923;;;;
2023/05/19 08:36:05;;;;;;;2.8;2.5;;;;;;;17.64;59.67383;939.38;;;;
2023/05/19 08:38:31;;;;;;;3;2.4;;;;;;;18.02;57.80859;939.301;;;;
2023/05/19 08:40:58;;;;;;;2.7;2.4;;;;;;;18.05;59.50781;939.3087;;;;
2023/05/19 08:43:23;;;;;;;3.1;2.4;;;;;;;18.06;59.15039;939.3182;;;;
2023/05/19 08:45:49;;;;;;;2.3;2.1;;;;;;;19.38;54.72461;939.2758;;;;
2023/05/19 08:48:14;;;;;;;2.8;2.3;;;;;;;19.61;53.71582;939.2767;;;;
2023/05/19 08:50:42;;;;;;;3.2;2.3;;;;;;;19.62;52.72754;939.27;;;;
2023/05/19 08:53:10;;;;;;;3.9;2.3;;;;;;;20.16;51.65918;939.2325;;;;
2023/05/19 08:55:38;;;;;;;2.4;2.2;;;;;;;20.39;51.26563;939.2558;;;;
2023/05/19 08:58:03;;;;;;;2.9;2.6;;;;;;;20.4;49.1416;939.228;;;;
2023/05/19 09:00:34;;;;;;;2.7;2.4;;;;;;;18.08;56.94434;939.255;;;;
2023/05/19 09:03:03;;;;;;;3;2.6;;;;;;;17.76;58.18164;939.2776;;;;
2023/05/19 09:05:28;;;;;;;4;2.4;;;;;;;17.15;58.87695;939.2271;;;;
2023/05/19 09:07:57;;;;;;;3.1;2.6;;;;;;;16.7;60.44922;939.2873;;;;
2023/05/19 09:10:22;;;;;;;4.9;2.9;;;;;;;16.07;63.36914;939.2506;;;;
2023/05/19 09:12:50;;;;;;;3.2;2.4;;;;;;;16.24;62.86133;939.2813;;;;
2023/05/19 09:15:16;;;;;;;4.4;3.1;;;;;;;15.68;64.09863;939.2794;;;;
2023/05/19 09:17:44;;;;;;;4.1;2.7;;;;;;;15.24;66.46875;939.2996;;;;
2023/05/19 09:20:10;;;;;;;3;2.6;;;;;;;14.97;68.05371;939.3792;;;;
2023/05/19 09:22:37;;;;;;;3.9;3;;;;;;;14.74;69.57422;939.413;;;;
2023/05/19 09:25:02;;;;;;;4.1;3.1;;;;;;;14.87;70.25098;939.3773;;;;
2023/05/19 09:27:27;;;;;;;3;2.7;;;;;;;14.67;70.19824;939.2906;;;;
2023/05/19 09:29:52;;;;;;;3.7;3.1;;;;;;;14.52;72.38672;939.3479;;;;
2023/05/19 09:32:23;;;;;;;6.5;3.2;;;;;;;14.19;74.02441;939.3858;;;;
2023/05/19 09:34:52;;;;;;;4.4;3.4;;;;;;;14.38;72.25977;939.3365;;;;
2023/05/19 09:37:15;;;;;;;3.9;3.3;;;;;;;14.54;71.3877;939.2949;;;;
2023/05/19 09:39:47;;;;;;;4.5;3.5;;;;;;;15.08;69.65137;939.1552;;;;
2023/05/19 09:42:09;;;;;;;4.4;3.1;;;;;;;15.48;67.34863;939.192;;;;
2023/05/19 09:44:36;;;;;;;3.6;2.8;;;;;;;15.72;68.41504;939.1922;;;;
2023/05/19 09:47:01;;;;;;;6.9;3;;;;;;;15.93;67.42969;939.1945;;;;
2023/05/19 09:49:28;;;;;;;5.2;3.3;;;;;;;15.9;66.75586;939.259;;;;
2023/05/19 09:51:52;;;;;;;4.8;3.2;;;;;;;15.49;69.09473;939.2731;;;;
2023/05/19 09:54:17;;;;;;;4.8;3.3;;;;;;;15.87;67.07324;939.135;;;;
2023/05/19 09:56:46;;;;;;;5;3.2;;;;;;;15.78;67.37207;939.1451;;;;
2023/05/19 09:59:10;;;;;;;3.5;2.9;;;;;;;16.39;65.49805;939.2225;;;;
2023/05/19 10:01:39;;;;;;;3.1;2.7;;;;;;;16.53;65.82031;939.0555;;;;
2023/05/19 10:04:03;;;;;;;5.5;3.1;;;;;;;16.41;68.83594;939.0977;;;;
2023/05/19 10:06:28;;;;;;;3.6;3.1;;;;;;;16.5;67.16895;939.1243;;;;
2023/05/19 10:08:53;;;;;;;5.6;3.3;;;;;;;16.78;67.75684;939.1398;;;;
2023/05/19 10:11:18;;;;;;;4.2;3;;;;;;;17.33;63.52832;938.9341;;;;
2023/05/19 10:13:48;;;;;;;3;2.3;;;;;;;18.06;60.18359;938.9081;;;;
2023/05/19 10:16:14;;;;;;;4;3;;;;;;;18.44;59.91113;939.0021;;;;
2023/05/19 10:18:40;;;;;;;4.9;3.1;;;;;;;18.6;61.88574;938.9974;;;;
2023/05/19 10:21:06;;;;;;;4.9;3.5;;;;;;;18.86;58.81543;938.8887;;;;
2023/05/19 10:23:33;;;;;;;3.7;2.5;;;;;;;18.78;60.72559;938.9458;;;;
2023/05/19 10:25:58;;;;;;;4.9;3.1;;;;;;;19.05;58.23535;938.8873;;;;
2023/05/19 10:28:25;;;;;;;2.6;2.4;;;;;;;19.22;58.67676;938.861;;;;
2023/05/19 10:30:48;;;;;;;3.6;2.3;;;;;;;19.38;57.04297;938.8478;;;;
2023/05/19 10:33:16;;;;;;;3.1;2.4;;;;;;;18.3;63.33105;938.7877;;;;
2023/05/19 10:35:40;;;;;;;4.7;2.7;;;;;;;18.53;61.44629;938.8092;;;;
2023/05/19 10:38:07;;;;;;;4.2;2.9;;;;;;;18.73;60.13477;938.6897;;;;
2023/05/19 10:40:35;;;;;;;3.3;2.8;;;;;;;18.68;57.64063;938.6655;;;;
2023/05/19 10:43:00;;;;;;;3.8;2.5;;;;;;;18.47;58.65918;938.613;;;;
2023/05/19 10:45:30;;;;;;;2.8;2.5;;;;;;;18.1;61.91992;938.6437;;;;
2023/05/19 10:47:56;;;;;;;3.5;2.6;;;;;;;18.74;60.03125;938.6611;;;;
2023/05/19 10:50:21;;;;;;;4.5;2.9;;;;;;;18.09;61.37402;938.7478;;;;
2023/05/19 10:52:47;;;;;;;3.3;2.9;;;;;;;18.11;60.33008;938.6566;;;;
2023/05/19 10:55:14;;;;;;;3.6;2.5;;;;;;;18.7;57.94531;938.6296;;;;
2023/05/19 10:57:37;;;;;;;3.3;2.8;;;;;;;17.96;61.88965;938.6356;;;;
2023/05/19 11:00:10;;;;;;;3;2.5;;;;;;;18.22;59.32227;938.5821;;;;
2023/05/19 11:02:32;;;;;;;2.6;2.4;;;;;;;18.06;61.56641;938.6662;;;;
2023/05/19 11:05:00;;;;;;;3.5;2.3;;;;;;;18.24;59.6748;938.6647;;;;
2023/05/19 11:07:26;;;;;;;3.3;2.4;;;;;;;18.48;57.49707;938.6206;;;;
2023/05/19 11:09:52;;;;;;;3.2;2.4;;;;;;;18.63;58.0293;938.5578;;;;
2023/05/19 11:12:19;;;;;;;3.1;2.3;;;;;;;18.63;57.41211;938.6062;;;;
2023/05/19 11:14:44;;;;;;;4.6;2.4;;;;;;;18.73;55.61035;938.6395;;;;
2023/05/19 11:17:09;;;;;;;2.5;2.2;;;;;;;18.5;57.93066;938.6308;;;;
2023/05/19 11:19:34;;;;;;;3.8;2.5;;;;;;;18.78;57.21191;938.661;;;;
2023/05/19 11:21:59;;;;;;;3.9;2.7;;;;;;;18.54;59.37793;938.6145;;;;
2023/05/19 11:24:26;;;;;;;4.6;2.7;;;;;;;17.53;63.5332;938.5956;;;;
2023/05/19 11:26:50;;;;;;;3.4;2.3;;;;;;;17.6;63.04395;938.6057;;;;
2023/05/19 11:29:15;;;;;;;3.4;2.2;;;;;;;17.47;62.63184;938.5949;;;;
2023/05/19 11:31:40;;;;;;;2.6;2.4;;;;;;;17.92;61.59277;938.6203;;;;
2023/05/19 11:34:07;;;;;;;3.6;2.4;;;;;;;17.71;61.14453;938.5681;;;;
2023/05/19 11:36:35;;;;;;;3.5;2.2;;;;;;;17.83;63.30859;938.5994;;;;
2023/05/19 11:38:59;;;;;;;4.5;2.3;;;;;;;18.08;60.80176;938.4894;;;;
2023/05/19 11:41:27;;;;;;;3.1;2.3;;;;;;;18.36;59.60742;938.4456;;;;
2023/05/19 11:43:51;;;;;;;2.3;2.1;;;;;;;18.72;60.30957;938.4905;;;;
2023/05/19 11:46:17;;;;;;;2.8;2.2;;;;;;;18.84;60.47656;938.3994;;;;
2023/05/19 11:48:42;;;;;;;2.5;2.2;;;;;;;18.72;59.6582;938.4478;;;;
2023/05/19 11:51:09;;;;;;;9.2;2.3;;;;;;;18.74;60.56641;938.3667;;;;
2023/05/19 11:53:34;;;;;;;3.7;2.4;;;;;;;18.9;57.57617;938.3706;;;;
2023/05/19 11:56:00;;;;;;;2.5;2.3;;;;;;;18.05;63.94531;938.3586;;;;
2023/05/19 11:58:26;;;;;;;3;2.4;;;;;;;17.93;64.19531;938.3816;;;;
2023/05/19 12:00:51;;;;;;;4.9;2.6;;;;;;;18.14;61.56543;938.3867;;;;
2023/05/19 12:03:16;;;;;;;3.6;2.4;;;;;;;18.09;61.19922;938.4384;;;;
2023/05/19 12:05:45;;;;;;;2.6;2.3;;;;;;;18.3;59.00781;938.3684;;;;
2023/05/19 12:08:09;;;;;;;2.8;2.4;;;;;;;18.53;59.99316;938.4398;;;;
2023/05/19 12:10:36;;;;;;;3.1;2.5;;;;;;;18.5;59.77832;938.3348;;;;
2023/05/19 12:13:01;;;;;;;4.2;2.7;;;;;;;18.43;61.1875;938.3502;;;;
2023/05/19 12:15:26;;;;;;;3.5;2.4;;;;;;;18.39;59.3457;938.3547;;;;
2023/05/19 12:17:51;;;;;;;3.1;2.3;;;;;;;18.45;59.99316;938.3166;;;;
2023/05/19 12:20:20;;;;;;;5.2;2.6;;;;;;;18.46;58.80859;938.2397;;;;
2023/05/19 12:22:45;;;;;;;4.7;2.5;;;;;;;18.54;58.76172;938.3404;;;;
2023/05/19 12:25:14;;;;;;;4.5;2.9;;;;;;;18.31;61.56641;938.291;;;;
2023/05/19 12:27:44;;;;;;;2.6;2.4;;;;;;;18.44;59.3877;938.3692;;;;
2023/05/19 12:30:09;;;;;;;3.3;2.5;;;;;;;18.15;61.38086;938.3027;;;;
2023/05/19 12:32:35;;;;;;;2.9;2.5;;;;;;;17.89;61.125;938.3307;;;;
2023/05/19 12:35:00;;;;;;;2.6;2.4;;;;;;;17.08;67.54883;938.3117;;;;
2023/05/19 12:37:28;;;;;;;2.5;2.3;;;;;;;17.44;65.86328;938.2718;;;;
2023/05/19 12:39:52;;;;;;;3.9;2.6;;;;;;;17.46;63.43066;938.2537;;;;
2023/05/19 12:42:17;;;;;;;3.8;2.8;;;;;;;17.56;64.6748;938.1603;;;;
2023/05/19 12:44:45;;;;;;;4;2.5;;;;;;;17.27;64.5166;938.2654;;;;
2023/05/19 12:47:09;;;;;;;3.7;2.5;;;;;;;17.51;62.96191;938.2594;;;;
2023/05/19 12:49:35;;;;;;;4.3;2.3;;;;;;;17.35;62.75391;938.3028;;;;
2023/05/19 12:52:00;;;;;;;3.2;2.5;;;;;;;17.15;64.92871;938.2703;;;;
2023/05/19 12:54:26;;;;;;;5.2;2.5;;;;;;;17.26;63.76172;938.3195;;;;
2023/05/19 12:56:51;;;;;;;3.3;2.4;;;;;;;17.37;62.59473;938.2992;;;;
2023/05/19 12:59:16;;;;;;;3.3;2.4;;;;;;;17.08;66.30859;938.3052;;;;
2023/05/19 13:01:42;;;;;;;2.5;2.1;;;;;;;17.02;66.33398;938.3051;;;;
2023/05/19 13:04:07;;;;;;;3.6;2.5;;;;;;;17.04;63.70703;938.2615;;;;
2023/05/19 13:06:34;;;;;;;4;2.4;;;;;;;16.89;64.68164;938.303;;;;
2023/05/19 13:08:59;;;;;;;3;2.4;;;;;;;17.23;63.0625;938.3225;;;;
2023/05/19 13:11:24;;;;;;;4;2.7;;;;;;;17.38;62.99121;938.2902;;;;
2023/05/19 13:13:49;;;;;;;4.4;2.6;;;;;;;17.16;63.00391;938.37;;;;
2023/05/19 13:16:18;;;;;;;3.8;2.8;;;;;;;16.78;64.81445;938.2505;;;;
2023/05/19 13:18:43;;;;;;;3.4;2;;;;;;;17.05;64.78613;938.3186;;;;
2023/05/19 13:21:09;;;;;;;4.2;2.3;;;;;;;17.02;63.44922;938.3053;;;;
2023/05/19 13:23:33;;;;;;;5.3;2.3;;;;;;;16.99;64.83398;938.2573;;;;
2023/05/19 13:25:59;;;;;;;4.9;2.4;;;;;;;17.06;66.31738;938.2805;;;;
2023/05/19 13:28:25;;;;;;;4.4;2.7;;;;;;;17.52;64.2041;938.194;;;;
2023/05/19 13:30:51;;;;;;;3.7;2.5;;;;;;;17.76;62.97461;938.2184;;;;
2023/05/19 13:33:15;;;;;;;4.1;2.7;;;;;;;17.83;61.68457;938.2037;;;;
2023/05/19 13:35:41;;;;;;;4.5;2.5;;;;;;;17.45;63.51074;938.1356;;;;
2023/05/19 13:38:06;;;;;;;3.9;2.3;;;;;;;17.56;63.42383;938.1844;;;;
2023/05/19 13:40:36;;;;;;;2.9;2.5;;;;;;;17.41;63.06445;938.103;;;;
2023/05/19 13:43:01;;;;;;;2.8;2.4;;;;;;;16.85;66.15918;938.1515;;;;
2023/05/19 13:45:26;;;;;;;3.6;2.8;;;;;;;16.86;65.63867;938.1876;;;;
2023/05/19 13:47:52;;;;;;;2.8;2.3;;;;;;;16.93;65.47461;938.1552;;;;
2023/05/19 13:50:20;;;;;;;2.2;2;;;;;;;17.3;63.17676;938.149;;;;
2023/05/19 13:52:45;;;;;;;3.4;2.6;;;;;;;17.4;63.5498;938.207;;;;
2023/05/19 13:55:15;;;;;;;3.2;2.1;;;;;;;17.46;62.64258;938.253;;;;
2023/05/19 13:57:43;;;;;;;2.6;2.4;;;;;;;17.66;61.61523;938.2578;;;;
2023/05/19 14:00:09;;;;;;;2.8;2.1;;;;;;;17.61;61.34082;938.2246;;;;
2023/05/19 14:02:36;;;;;;;3.9;2.1;;;;;;;17.29;63.90332;938.2355;;;;
2023/05/19 14:05:01;;;;;;;3.2;2.5;;;;;;;17.18;64.2832;938.2328;;;;
2023/05/19 14:07:27;;;;;;;3.7;2.5;;;;;;;17.03;65.00293;938.2175;;;;
2023/05/19 14:09:52;;;;;;;3.3;2.5;;;;;;;16.81;65.97656;938.2251;;;;
2023/05/19 14:12:17;;;;;;;3.4;2.2;;;;;;;16.9;65.19238;938.2497;;;;
2023/05/19 14:14:47;;;;;;;2.3;2;;;;;;;17.03;64.81738;938.1766;;;;
2023/05/19 14:17:11;;;;;;;2.8;2.5;;;;;;;16.91;65.27441;938.1442;;;;
2023/05/19 14:19:36;;;;;;;3.6;2.7;;;;;;;16.72;64.65625;938.1058;;;;
2023/05/19 14:22:04;;;;;;;4;2.8;;;;;;;16.55;66.04297;938.1655;;;;
2023/05/19 14:24:29;;;;;;;3.1;2.6;;;;;;;16.3;65.87793;938.2095;;;;
2023/05/19 14:26:57;;;;;;;3.7;2.4;;;;;;;16.33;66.93457;938.1641;;;;
2023/05/19 14:29:22;;;;;;;3.9;2.8;;;;;;;16.17;66.76074;938.1239;;;;
2023/05/19 14:31:48;;;;;;;4.9;2.7;;;;;;;16.08;68.52832;938.1765;;;;
2023/05/19 14:34:16;;;;;;;4.1;3.2;;;;;;;15.9;69.66895;938.1926;;;;
2023/05/19 14:36:38;;;;;;;4.6;3.1;;;;;;;15.79;70.25098;938.2474;;;;
2023/05/19 14:39:04;;;;;;;3.2;2.7;;;;;;;15.72;69.69629;938.2361;;;;
2023/05/19 14:41:29;;;;;;;3.6;3.1;;;;;;;15.82;69.53906;938.3019;;;;
2023/05/19 14:43:56;;;;;;;5.2;3.1;;;;;;;15.85;69.55566;938.2969;;;;
2023/05/19 14:46:21;;;;;;;3.9;3.1;;;;;;;15.73;69.1084;938.3484;;;;
2023/05/19 14:49:27;;;;;;;4.7;3.5;;;;;;;15.71;69.41699;938.3389;;;;
2023/05/19 14:51:52;;;;;;;3.4;3.1;;;;;;;15.79;67.96289;938.3237;;;;
2023/05/19 14:54:20;;;;;;;4;3.3;;;;;;;15.79;69.12988;938.298;;;;
2023/05/19 14:56:45;;;;;;;6.2;3.6;;;;;;;15.8;68.15039;938.3139;;;;
2023/05/19 14:59:13;;;;;;;3.6;3;;;;;;;15.77;68.45801;938.3631;;;;
2023/05/19 15:01:38;;;;;;;3.3;3;;;;;;;15.64;69.2793;938.387;;;;
2023/05/19 15:04:07;;;;;;;3.8;3.2;;;;;;;15.86;67.40723;938.385;;;;
2023/05/19 15:06:32;;;;;;;3.3;2.9;;;;;;;15.79;68.56348;938.3879;;;;
2023/05/19 15:09:00;;;;;;;4;3.2;;;;;;;15.67;68.60254;938.3225;;;;
2023/05/19 15:11:24;;;;;;;4.9;3.5;;;;;;;15.79;68.56348;938.3453;;;;
2023/05/19 15:13:50;;;;;;;6.2;3.6;;;;;;;15.67;68.42969;938.3354;;;;
2023/05/19 15:16:15;;;;;;;4.1;3.1;;;;;;;15.65;68.92383;938.3709;;;;
2023/05/19 15:18:40;;;;;;;4.3;3.2;;;;;;;15.24;71.59375;938.3103;;;;
2023/05/19 15:21:07;;;;;;;5.6;3.4;;;;;;;15.34;70.83594;938.3191;;;;
2023/05/19 15:23:32;;;;;;;4.2;3.4;;;;;;;15.24;71.35254;938.3088;;;;
2023/05/19 15:28:33;;;;;;;4.5;3.5;;;;;;;15.03;71.66309;938.2813;;;;
2023/05/19 15:31:00;;;;;;;4.2;3.5;;;;;;;15.11;71.66406;938.2999;;;;
2023/05/19 15:33:26;;;;;;;4.1;3.3;;;;;;;14.99;71.85254;938.3463;;;;
2023/05/19 15:35:54;;;;;;;4.7;3.9;;;;;;;15;71.1748;938.3533;;;;
2023/05/19 15:38:19;;;;;;;6.4;4;;;;;;;14.91;71.50586;938.39;;;;